createdAt,value
2022-10-24T00:02:20.292Z,6.05
2022-10-24T00:05:22.098Z,6.04
2022-10-24T00:08:23.920Z,6.05
2022-10-24T00:11:28.126Z,6.06
2022-10-24T00:14:30.871Z,6.07
2022-10-24T00:17:33.124Z,6.07
2022-10-24T00:20:37.267Z,6.05
2022-10-24T00:23:39.206Z,6.03
2022-10-24T00:26:41.063Z,6.04
2022-10-24T00:29:43.148Z,6.02
2022-10-24T00:32:45.051Z,6.00
2022-10-24T00:35:47.159Z,5.98
2022-10-24T00:38:50.292Z,5.97
2022-10-24T00:41:54.370Z,5.96
2022-10-24T00:44:56.174Z,5.94
2022-10-24T00:47:57.906Z,5.91
2022-10-24T00:51:11.700Z,5.90
2022-10-24T00:54:14.065Z,5.89
2022-10-24T00:57:26.436Z,5.89
2022-10-24T01:00:30.803Z,5.89
2022-10-24T01:03:32.977Z,5.90
2022-10-24T01:07:04.465Z,5.90
2022-10-24T01:13:49.971Z,5.87
2022-10-24T01:16:56.792Z,5.85
2022-10-24T01:20:40.499Z,5.82
2022-10-24T01:23:49.656Z,5.82
2022-10-24T01:27:22.606Z,5.82
2022-10-24T01:30:24.967Z,5.82
2022-10-24T01:33:31.857Z,5.81
2022-10-24T01:36:39.370Z,5.82
2022-10-24T01:39:46.701Z,5.80
2022-10-24T01:42:49.862Z,5.82
2022-10-24T01:45:56.962Z,5.83
2022-10-24T01:49:12.809Z,5.83
2022-10-24T01:52:16.577Z,5.83
2022-10-24T01:55:18.517Z,5.84
2022-10-24T01:58:21.496Z,5.84
2022-10-24T02:01:24.739Z,5.85
2022-10-24T02:04:28.927Z,5.87
2022-10-24T02:07:32.414Z,5.89
2022-10-24T02:10:45.765Z,5.92
2022-10-24T02:13:58.374Z,5.94
2022-10-24T02:17:01.328Z,5.90
2022-10-24T02:20:04.334Z,5.88
2022-10-24T02:23:16.239Z,5.78
2022-10-24T02:26:29.225Z,5.64
2022-10-24T02:29:43.739Z,5.54
2022-10-24T02:32:49.135Z,5.53
2022-10-24T02:35:52.766Z,5.51
2022-10-24T02:38:56.298Z,5.47
2022-10-24T02:41:59.562Z,5.44
2022-10-24T02:45:02.461Z,5.33
2022-10-24T02:48:10.741Z,5.24
2022-10-24T02:51:14.525Z,5.24
2022-10-24T02:54:16.297Z,5.24
2022-10-24T02:57:19.143Z,5.26
2022-10-24T03:00:21.197Z,5.28
2022-10-24T03:03:22.991Z,5.31
2022-10-24T03:06:24.960Z,5.34
2022-10-24T03:09:26.799Z,5.36
2022-10-24T03:12:28.609Z,5.38
2022-10-24T03:15:30.699Z,5.41
2022-10-24T03:18:32.657Z,5.44
2022-10-24T03:21:34.407Z,5.44
2022-10-24T03:24:43.727Z,5.44
2022-10-24T03:27:46.660Z,5.48
2022-10-24T03:30:48.802Z,5.52
2022-10-24T03:33:50.711Z,5.54
2022-10-24T03:36:52.445Z,5.54
2022-10-24T03:39:54.156Z,5.50
2022-10-24T03:42:55.970Z,5.41
2022-10-24T03:45:57.716Z,5.31
2022-10-24T03:48:59.651Z,5.27
2022-10-24T03:52:01.506Z,5.28
2022-10-24T03:55:03.614Z,5.31
2022-10-24T03:58:05.495Z,5.32
2022-10-24T04:01:09.814Z,5.34
2022-10-24T04:04:11.717Z,5.35
2022-10-24T04:07:13.566Z,5.37
2022-10-24T04:10:15.378Z,5.34
2022-10-24T04:13:17.148Z,5.19
2022-10-24T04:16:20.191Z,4.89
2022-10-24T04:19:22.115Z,4.73
2022-10-24T04:22:24.048Z,4.79
2022-10-24T04:25:26.047Z,4.86
2022-10-24T04:28:30.172Z,4.84
2022-10-24T04:31:32.237Z,4.88
2022-10-24T04:34:36.290Z,4.90
2022-10-24T04:37:38.207Z,4.89
2022-10-24T04:40:39.887Z,4.88
2022-10-24T04:43:41.546Z,4.87
2022-10-24T04:46:44.101Z,4.87
2022-10-24T04:49:47.150Z,4.86
2022-10-24T04:52:48.906Z,4.93
2022-10-24T04:55:50.533Z,5.13
2022-10-24T04:58:52.643Z,5.23
2022-10-24T05:01:55.191Z,5.25
2022-10-24T05:04:57.131Z,5.37
2022-10-24T05:07:58.873Z,5.48
2022-10-24T05:11:00.825Z,5.54
2022-10-24T05:14:02.630Z,5.54
2022-10-24T05:17:04.522Z,5.59
2022-10-24T05:20:07.509Z,5.65
2022-10-24T05:23:09.613Z,5.63
2022-10-24T05:26:11.328Z,5.67
2022-10-24T05:29:13.105Z,5.71
2022-10-24T05:32:14.910Z,5.71
2022-10-24T05:35:17.119Z,5.74
2022-10-24T05:38:19.028Z,5.95
2022-10-24T05:41:20.884Z,6.08
2022-10-24T05:44:22.911Z,6.15
2022-10-24T05:47:26.899Z,6.20
2022-10-24T05:50:31.502Z,6.27
2022-10-24T05:53:33.323Z,6.36
2022-10-24T05:56:35.174Z,6.42
2022-10-24T05:59:37.070Z,6.48
2022-10-24T06:02:39.702Z,6.55
2022-10-24T06:05:41.764Z,6.66
2022-10-24T06:08:43.662Z,6.76
2022-10-24T06:11:45.853Z,6.85
2022-10-24T06:14:47.696Z,6.93
2022-10-24T06:17:49.540Z,7.01
2022-10-24T06:20:54.066Z,7.09
2022-10-24T06:23:57.990Z,7.16
2022-10-24T06:27:00.007Z,7.25
2022-10-24T06:30:01.870Z,7.36
2022-10-24T06:33:03.761Z,7.45
2022-10-24T06:36:08.025Z,7.50
2022-10-24T06:39:09.878Z,7.54
2022-10-24T06:42:11.802Z,7.62
2022-10-24T06:45:13.945Z,7.68
2022-10-24T06:48:15.883Z,7.76
2022-10-24T06:51:17.772Z,7.82
2022-10-24T06:54:19.491Z,7.88
2022-10-24T06:57:21.379Z,7.96
2022-10-24T07:00:23.512Z,8.06
2022-10-24T07:03:25.627Z,8.18
2022-10-24T07:06:29.842Z,8.28
2022-10-24T07:09:31.632Z,8.39
2022-10-24T07:12:33.421Z,8.48
2022-10-24T07:15:35.263Z,8.58
2022-10-24T07:18:37.160Z,8.67
2022-10-24T07:21:39.483Z,8.77
2022-10-24T07:24:41.193Z,8.88
2022-10-24T07:27:42.986Z,9.00
2022-10-24T07:30:45.747Z,9.12
2022-10-24T07:33:47.544Z,9.22
2022-10-24T07:36:49.451Z,9.33
2022-10-24T07:39:51.352Z,9.40
2022-10-24T07:42:53.107Z,9.46
2022-10-24T07:45:54.929Z,9.51
2022-10-24T07:48:56.837Z,9.59
2022-10-24T07:52:00.027Z,9.69
2022-10-24T07:55:01.762Z,9.82
2022-10-24T07:58:03.706Z,10.00
2022-10-24T08:01:07.793Z,10.21
2022-10-24T08:04:10.704Z,10.41
2022-10-24T08:07:15.691Z,10.80
2022-10-24T08:10:17.813Z,11.59
2022-10-24T08:13:19.615Z,12.21
2022-10-24T08:16:23.014Z,12.81
2022-10-24T08:22:27.620Z,13.27
2022-10-24T08:25:29.456Z,13.58
2022-10-24T08:28:31.355Z,13.97
2022-10-24T08:31:33.123Z,14.49
2022-10-24T08:34:35.300Z,14.86
2022-10-24T08:40:48.813Z,14.98
2022-10-24T08:43:52.207Z,15.61
2022-10-24T08:47:25.284Z,16.35
2022-10-24T08:50:30.430Z,17.22
2022-10-24T08:53:33.306Z,17.99
2022-10-24T08:56:35.420Z,18.83
2022-10-24T08:59:38.045Z,19.43
2022-10-24T09:02:43.477Z,19.86
2022-10-24T09:05:51.592Z,19.82
2022-10-24T09:08:56.552Z,19.65
2022-10-24T09:12:03.840Z,20.06
2022-10-24T09:15:15.705Z,20.65
2022-10-24T09:18:23.820Z,21.09
2022-10-24T09:21:26.250Z,21.64
2022-10-24T09:24:32.782Z,22.10
2022-10-24T09:27:37.333Z,21.83
2022-10-24T09:30:39.702Z,21.53
2022-10-24T09:33:42.955Z,21.62
2022-10-24T09:36:45.007Z,21.29
2022-10-24T09:39:46.991Z,21.12
2022-10-24T09:43:10.602Z,20.74
2022-10-24T09:46:16.565Z,20.50
2022-10-24T09:49:23.506Z,20.33
2022-10-24T09:52:27.771Z,20.06
2022-10-24T09:55:31.410Z,19.72
2022-10-24T09:58:34.046Z,19.57
2022-10-24T10:01:38.318Z,19.40
2022-10-24T10:04:41.550Z,19.15
2022-10-24T10:07:48.620Z,18.90
2022-10-24T10:11:09.654Z,18.74
2022-10-24T10:14:28.394Z,18.54
2022-10-24T10:17:33.361Z,18.40
2022-10-24T10:20:39.858Z,18.38
2022-10-24T10:23:49.599Z,18.37
2022-10-24T10:26:51.578Z,18.32
2022-10-24T10:30:11.792Z,18.23
2022-10-24T10:33:24.786Z,18.01
2022-10-24T10:36:54.296Z,17.80
2022-10-24T10:40:21.012Z,17.63
2022-10-24T10:43:44.035Z,17.53
2022-10-24T10:47:14.666Z,17.53
2022-10-24T10:50:25.705Z,17.51
2022-10-24T10:53:45.127Z,17.54
2022-10-24T10:56:54.793Z,17.63
2022-10-24T11:00:10.005Z,17.69
2022-10-24T11:03:31.509Z,17.75
2022-10-24T11:06:47.320Z,17.81
2022-10-24T11:09:51.496Z,17.83
2022-10-24T11:12:54.560Z,17.78
2022-10-24T11:15:59.228Z,17.71
2022-10-24T11:19:05.416Z,17.69
2022-10-24T11:22:07.527Z,17.73
2022-10-24T11:25:18.603Z,17.74
2022-10-24T11:28:45.091Z,17.66
2022-10-24T11:32:09.805Z,17.61
2022-10-24T11:35:27.349Z,17.64
2022-10-24T11:38:30.834Z,17.72
2022-10-24T11:41:38.522Z,17.81
2022-10-24T11:44:50.354Z,17.89
2022-10-24T11:48:13.520Z,18.10
2022-10-24T11:51:50.029Z,18.39
2022-10-24T11:54:58.438Z,18.80
2022-10-24T11:58:00.598Z,19.10
2022-10-24T12:01:18.161Z,19.28
2022-10-24T12:04:51.409Z,19.42
2022-10-24T12:08:04.346Z,19.43
2022-10-24T12:11:26.300Z,19.25
2022-10-24T12:14:50.044Z,19.01
2022-10-24T12:18:02.477Z,18.94
2022-10-24T12:21:26.298Z,18.99
2022-10-24T12:24:39.032Z,19.06
2022-10-24T12:27:41.761Z,19.10
2022-10-24T12:30:44.066Z,19.08
2022-10-24T12:33:48.160Z,19.10
2022-10-24T12:37:05.895Z,19.20
2022-10-24T12:40:45.531Z,19.26
2022-10-24T12:43:50.941Z,19.31
2022-10-24T12:46:54.125Z,19.32
2022-10-24T12:49:56.875Z,19.30
2022-10-24T12:53:04.952Z,19.33
2022-10-24T12:56:13.503Z,19.42
2022-10-24T12:59:46.193Z,19.50
2022-10-24T13:02:55.565Z,19.55
2022-10-24T13:06:09.385Z,19.68
2022-10-24T13:09:30.391Z,19.88
2022-10-24T13:12:40.575Z,20.01
2022-10-24T13:15:51.278Z,20.12
2022-10-24T13:19:10.937Z,20.36
2022-10-24T13:22:30.057Z,20.46
2022-10-24T13:25:36.034Z,20.41
2022-10-24T13:28:40.502Z,20.63
2022-10-24T13:31:45.367Z,20.76
2022-10-24T13:34:50.099Z,20.80
2022-10-24T13:37:59.164Z,20.74
2022-10-24T13:41:03.198Z,20.72
2022-10-24T13:44:33.176Z,20.65
2022-10-24T13:47:43.622Z,20.51
2022-10-24T13:51:04.194Z,20.38
2022-10-24T13:54:15.218Z,20.18
2022-10-24T13:57:24.281Z,20.00
2022-10-24T14:00:32.286Z,19.85
2022-10-24T14:03:34.824Z,19.81
2022-10-24T14:06:36.946Z,19.82
2022-10-24T14:09:43.288Z,19.81
2022-10-24T14:12:45.974Z,19.80
2022-10-24T14:15:59.658Z,19.77
2022-10-24T14:19:15.418Z,19.71
2022-10-24T14:22:29.417Z,19.58
2022-10-24T14:25:36.774Z,19.44
2022-10-24T14:29:05.351Z,19.32
2022-10-24T14:32:08.232Z,19.19
2022-10-24T14:35:14.189Z,19.08
2022-10-24T14:38:17.175Z,18.99
2022-10-24T14:41:19.420Z,18.89
2022-10-24T14:44:22.675Z,18.81
2022-10-24T14:47:33.138Z,18.71
2022-10-24T14:50:36.644Z,18.57
2022-10-24T14:53:39.632Z,18.47
2022-10-24T14:56:41.445Z,18.38
2022-10-24T14:59:45.286Z,18.24
2022-10-24T15:02:48.077Z,18.06
2022-10-24T15:06:09.317Z,17.91
2022-10-24T15:09:11.062Z,17.76
2022-10-24T15:12:13.389Z,17.62
2022-10-24T15:15:22.492Z,17.48
2022-10-24T15:18:26.234Z,17.29
2022-10-24T15:21:33.063Z,17.12
2022-10-24T15:24:34.812Z,16.93
2022-10-24T15:27:41.971Z,16.80
2022-10-24T15:30:43.619Z,16.61
2022-10-24T15:33:45.813Z,16.40
2022-10-24T15:36:49.485Z,16.27
2022-10-24T15:39:53.022Z,16.13
2022-10-24T15:42:54.934Z,15.99
2022-10-24T15:45:57.792Z,15.81
2022-10-24T15:48:59.735Z,15.66
2022-10-24T15:52:01.482Z,15.54
2022-10-24T15:55:03.266Z,15.47
2022-10-24T15:58:11.240Z,15.39
2022-10-24T16:01:23.483Z,15.31
2022-10-24T16:04:25.370Z,15.22
2022-10-24T16:07:27.097Z,15.10
2022-10-24T16:10:28.773Z,14.93
2022-10-24T16:13:30.645Z,14.77
2022-10-24T16:16:32.375Z,14.57
2022-10-24T16:19:34.146Z,14.42
2022-10-24T16:22:35.946Z,14.26
2022-10-24T16:25:38.529Z,14.08
2022-10-24T16:28:40.426Z,13.93
2022-10-24T16:31:42.875Z,13.83
2022-10-24T16:34:49.043Z,13.70
2022-10-24T16:37:52.209Z,13.56
2022-10-24T16:40:54.366Z,13.46
2022-10-24T16:43:57.092Z,13.40
2022-10-24T16:46:58.924Z,13.37
2022-10-24T16:50:00.701Z,13.34
2022-10-24T16:53:05.020Z,13.32
2022-10-24T16:56:09.538Z,13.30
2022-10-24T16:59:14.592Z,13.28
2022-10-24T17:02:18.188Z,13.26
2022-10-24T17:05:22.491Z,13.34
2022-10-24T17:08:24.305Z,13.47
2022-10-24T17:11:44.450Z,13.46
2022-10-24T17:14:47.357Z,13.27
2022-10-24T17:17:49.405Z,12.96
2022-10-24T17:20:51.713Z,12.60
2022-10-24T17:23:54.214Z,12.51
2022-10-24T17:26:56.094Z,12.33
2022-10-24T17:29:58.087Z,12.12
2022-10-24T17:33:00.479Z,12.05
2022-10-24T17:36:02.501Z,11.91
2022-10-24T17:39:10.398Z,11.88
2022-10-24T17:42:12.527Z,11.85
2022-10-24T17:45:22.738Z,11.74
2022-10-24T17:48:24.759Z,11.63
2022-10-24T17:51:27.499Z,11.45
2022-10-24T17:54:29.200Z,11.35
2022-10-24T17:57:31.177Z,11.29
2022-10-24T18:00:33.326Z,11.10
2022-10-24T18:03:35.181Z,11.14
2022-10-24T18:06:42.997Z,11.16
2022-10-24T18:09:45.200Z,11.20
2022-10-24T18:12:47.312Z,11.12
2022-10-24T18:15:49.267Z,11.16
2022-10-24T18:18:51.073Z,11.22
2022-10-24T18:21:52.888Z,11.21
2022-10-24T18:24:54.655Z,11.25
2022-10-24T18:27:57.046Z,11.19
2022-10-24T18:30:58.749Z,11.22
2022-10-24T18:34:06.088Z,11.31
2022-10-24T18:37:10.022Z,11.36
2022-10-24T18:40:12.576Z,11.35
2022-10-24T18:43:14.609Z,11.34
2022-10-24T18:46:16.742Z,11.28
2022-10-24T18:49:37.322Z,11.12
2022-10-24T18:53:01.041Z,11.00
2022-10-24T18:56:03.170Z,10.85
2022-10-24T18:59:12.194Z,10.75
2022-10-24T19:02:26.515Z,10.70
2022-10-24T19:05:41.523Z,10.66
2022-10-24T19:08:43.378Z,10.71
2022-10-24T19:11:45.655Z,10.79
2022-10-24T19:14:47.731Z,10.77
2022-10-24T19:17:51.089Z,10.71
2022-10-24T19:20:53.060Z,10.71
2022-10-24T19:23:54.847Z,10.54
2022-10-24T19:26:56.584Z,10.42
2022-10-24T19:29:58.567Z,10.38
2022-10-24T19:33:00.324Z,10.33
2022-10-24T19:36:03.223Z,10.40
2022-10-24T19:39:05.333Z,10.41
2022-10-24T19:42:07.571Z,10.04
2022-10-24T19:45:09.823Z,9.75
2022-10-24T19:48:14.522Z,9.61
2022-10-24T19:51:18.289Z,9.56
2022-10-24T19:54:20.250Z,9.55
2022-10-24T19:57:21.966Z,9.57
2022-10-24T20:00:25.423Z,9.67
2022-10-24T20:03:27.241Z,9.73
2022-10-24T20:06:29.258Z,9.74
2022-10-24T20:09:31.014Z,9.71
2022-10-24T20:12:32.875Z,9.72
2022-10-24T20:15:34.603Z,9.80
2022-10-24T20:18:37.688Z,9.83
2022-10-24T20:21:39.434Z,9.88
2022-10-24T20:24:41.264Z,9.92
2022-10-24T20:27:43.518Z,10.00
2022-10-24T20:30:46.984Z,10.01
2022-10-24T20:33:49.096Z,10.00
2022-10-24T20:36:50.899Z,10.06
2022-10-24T20:39:52.597Z,10.02
2022-10-24T20:42:54.562Z,9.89
2022-10-24T20:45:56.539Z,9.80
2022-10-24T20:48:58.355Z,9.70
2022-10-24T20:52:00.521Z,9.63
2022-10-24T20:55:07.606Z,9.67
2022-10-24T20:58:16.566Z,9.83
2022-10-24T21:01:23.423Z,9.93
2022-10-24T21:04:25.361Z,10.02
2022-10-24T21:07:27.415Z,10.07
2022-10-24T21:10:29.194Z,10.14
2022-10-24T21:13:30.923Z,10.20
2022-10-24T21:16:34.036Z,10.18
2022-10-24T21:19:35.685Z,10.26
2022-10-24T21:22:37.639Z,10.36
2022-10-24T21:25:39.758Z,10.43
2022-10-24T21:28:41.842Z,10.49
2022-10-24T21:31:43.613Z,10.54
2022-10-24T21:34:45.287Z,10.62
2022-10-24T21:37:47.126Z,10.65
2022-10-24T21:40:49.300Z,10.70
2022-10-24T21:43:52.207Z,10.75
2022-10-24T21:46:54.595Z,10.76
2022-10-24T21:49:56.309Z,10.78
2022-10-24T21:52:58.121Z,10.81
2022-10-24T21:56:08.876Z,10.84
2022-10-24T21:59:16.354Z,10.93
2022-10-24T22:02:18.592Z,10.99
2022-10-24T22:05:20.600Z,11.03
2022-10-24T22:08:23.577Z,11.03
2022-10-24T22:11:27.638Z,11.03
2022-10-24T22:14:29.351Z,11.03
2022-10-24T22:17:31.074Z,11.03
2022-10-24T22:20:35.832Z,11.03
2022-10-24T22:23:37.808Z,10.97
2022-10-24T22:26:40.584Z,10.92
2022-10-24T22:29:42.278Z,10.91
2022-10-24T22:32:44.512Z,10.92
2022-10-24T22:35:54.506Z,10.91
2022-10-24T22:38:57.334Z,10.86
2022-10-24T22:41:59.365Z,10.85
2022-10-24T22:45:01.324Z,10.87
2022-10-24T22:48:11.780Z,10.96
2022-10-24T22:51:14.652Z,10.99
2022-10-24T22:54:23.792Z,11.05
2022-10-24T22:57:25.816Z,11.16
2022-10-24T23:00:27.940Z,11.24
2022-10-24T23:03:53.826Z,11.30
2022-10-24T23:07:35.836Z,11.37
2022-10-24T23:10:39.795Z,11.43
2022-10-24T23:13:42.828Z,11.48
2022-10-24T23:16:58.983Z,11.53
2022-10-24T23:20:01.174Z,11.58
2022-10-24T23:23:16.498Z,11.63
2022-10-24T23:26:31.601Z,11.68
2022-10-24T23:29:35.458Z,11.77
2022-10-24T23:32:38.668Z,11.91
2022-10-24T23:35:40.806Z,12.05
2022-10-24T23:38:42.870Z,12.14
2022-10-24T23:41:45.175Z,12.23
2022-10-24T23:44:47.342Z,12.31
2022-10-24T23:48:40.239Z,12.40
2022-10-24T23:51:47.383Z,12.51
2022-10-24T23:54:49.459Z,12.58
2022-10-24T23:57:51.157Z,12.65
